Time;durP1;ratioP1;P1;durP2;ratioP2;P2;SDS_P1;SDS_P2;PMS_P1;PMS_P2;Temp;Humidity;BMP_temperature;BMP_pressure;BME280_temperature;BME280_humidity;BME280_pressure;Samples;Min_cycle;Max_cycle;Signal;HPM_P1;HPM_P2
2023/08/02 00:00:34;;;;;;;4.57;1.83;;;;;;;21.90;nan;99548.06;5087120;28;20127;-88
2023/08/02 00:02:59;;;;;;;3.22;2.03;;;;;;;21.90;nan;99551.56;5067526;28;20089;-87
2023/08/02 00:05:25;;;;;;;4.15;2.00;;;;;;;21.91;nan;99550.56;5082399;28;20040;-87
2023/08/02 00:07:50;;;;;;;2.00;1.80;;;;;;;21.91;nan;99547.91;5088184;28;20115;-87
2023/08/02 00:10:16;;;;;;;2.55;2.28;;;;;;;21.91;nan;99540.00;5087787;28;20025;-88
2023/08/02 00:12:41;;;;;;;2.33;2.05;;;;;;;21.93;nan;99537.19;5083623;28;20028;-87
2023/08/02 00:15:07;;;;;;;4.60;2.13;;;;;;;21.93;nan;99537.19;5083346;28;20035;-86
2023/08/02 00:17:32;;;;;;;5.63;2.05;;;;;;;21.93;nan;99534.56;5088304;28;20028;-85
2023/08/02 00:19:57;;;;;;;5.47;2.25;;;;;;;21.93;nan;99527.47;5088214;28;20788;-87
2023/08/02 00:22:23;;;;;;;4.40;1.85;;;;;;;21.94;nan;99526.47;5086690;28;20538;-87
2023/08/02 00:24:48;;;;;;;2.53;2.30;;;;;;;21.94;nan;99523.81;5085667;28;20575;-87
2023/08/02 00:27:13;;;;;;;3.63;2.15;;;;;;;21.93;nan;99514.25;5086702;28;20725;-87
2023/08/02 00:29:39;;;;;;;4.00;2.00;;;;;;;21.94;nan;99507.97;5069094;28;20702;-87
2023/08/02 00:32:04;;;;;;;3.17;2.00;;;;;;;21.93;nan;99498.38;5083473;28;20043;-92
2023/08/02 00:34:30;;;;;;;4.20;1.80;;;;;;;21.93;nan;99485.16;5094574;28;20028;-87
2023/08/02 00:36:55;;;;;;;2.55;1.73;;;;;;;21.94;nan;99484.19;5090630;28;20778;-86
2023/08/02 00:39:20;;;;;;;6.05;2.25;;;;;;;21.94;nan;99486.84;5086268;28;20145;-86
2023/08/02 00:41:49;;;;;;;3.67;2.10;;;;;;;21.94;nan;99494.75;5068416;28;20044;-86
2023/08/02 00:44:14;;;;;;;3.30;1.60;;;;;;;21.94;nan;99509.78;5083993;28;20719;-87
2023/08/02 00:46:39;;;;;;;6.38;2.03;;;;;;;21.94;nan;99507.97;5087561;28;20040;-87
2023/08/02 00:49:05;;;;;;;2.45;1.90;;;;;;;21.95;nan;99504.38;5087313;27;20811;-87
2023/08/02 00:51:33;;;;;;;5.43;2.10;;;;;;;21.95;nan;99496.44;5087285;28;20027;-88
2023/08/02 00:54:02;;;;;;;2.75;1.63;;;;;;;21.95;nan;99485.88;5087495;28;20042;-89
2023/08/02 00:56:28;;;;;;;1.92;1.52;;;;;;;21.96;nan;99494.63;5074539;28;20028;-89
2023/08/02 00:58:53;;;;;;;2.78;2.10;;;;;;;21.96;nan;99497.28;5085614;28;20142;-90
2023/08/02 01:01:18;;;;;;;3.00;1.80;;;;;;;21.96;nan;99494.63;5088178;28;20035;-89
2023/08/02 01:03:44;;;;;;;3.92;1.95;;;;;;;21.96;nan;99494.63;5068128;28;20027;-88
2023/08/02 01:06:36;;;;;;;1.95;1.75;;;;;;;21.96;nan;99487.53;5083166;28;20130;-87
2023/08/02 01:09:04;;;;;;;2.00;1.80;;;;;;;21.96;nan;99484.91;5070729;28;20120;-88
2023/08/02 01:11:46;;;;;;;2.97;2.05;;;;;;;21.96;nan;99478.78;5088880;28;20028;-89
2023/08/02 01:14:14;;;;;;;2.20;1.88;;;;;;;21.96;nan;99478.78;5067572;28;20028;-90
2023/08/02 01:16:40;;;;;;;4.55;1.63;;;;;;;21.96;nan;99476.97;5090742;28;20088;-91
2023/08/02 01:19:09;;;;;;;2.60;1.70;;;;;;;21.96;nan;99471.69;5087720;28;20597;-90
2023/08/02 01:21:35;;;;;;;2.22;1.85;;;;;;;21.96;nan;99469.03;5088709;28;20027;-85
2023/08/02 01:24:00;;;;;;;1.98;1.80;;;;;;;21.96;nan;99469.03;5083882;28;20043;-88
2023/08/02 01:26:27;;;;;;;3.78;2.00;;;;;;;21.96;nan;99470.84;5086490;28;20032;-87
2023/08/02 01:28:54;;;;;;;2.08;1.65;;;;;;;21.98;nan;99470.69;5086286;28;20024;-87
2023/08/02 01:31:21;;;;;;;3.20;1.88;;;;;;;21.97;nan;99480.44;5088522;28;20024;-88
2023/08/02 01:33:49;;;;;;;2.08;1.50;;;;;;;21.97;nan;99477.78;5085893;28;20040;-87
2023/08/02 01:36:14;;;;;;;4.03;1.33;;;;;;;21.98;nan;99473.34;5091373;28;20484;-87
2023/08/02 01:38:40;;;;;;;2.70;1.83;;;;;;;21.97;nan;99475.16;5085660;28;20052;-87
2023/08/02 01:41:05;;;;;;;3.10;1.85;;;;;;;21.97;nan;99477.78;5066162;28;20138;-89
2023/08/02 01:43:30;;;;;;;2.92;2.00;;;;;;;21.96;nan;99474.31;5088877;28;20027;-88
2023/08/02 01:45:56;;;;;;;2.90;1.60;;;;;;;21.96;nan;99468.22;5081835;28;20024;-87
2023/08/02 01:48:22;;;;;;;2.38;1.75;;;;;;;21.95;nan;99451.53;5067947;28;20032;-87
2023/08/02 01:50:48;;;;;;;3.88;1.83;;;;;;;21.98;nan;99446.91;5086051;28;20020;-86
2023/08/02 01:53:13;;;;;;;3.33;1.55;;;;;;;21.96;nan;99449.72;5083473;28;20035;-85
2023/08/02 01:55:38;;;;;;;2.78;1.70;;;;;;;21.97;nan;99448.72;5069831;28;20024;-87
2023/08/02 01:58:04;;;;;;;1.80;1.60;;;;;;;21.96;nan;99442.59;5088360;28;20049;-87
2023/08/02 02:00:29;;;;;;;3.90;1.63;;;;;;;21.96;nan;99447.91;5088961;28;20076;-88
2023/08/02 02:02:57;;;;;;;3.47;1.58;;;;;;;21.97;nan;99443.44;5086590;28;20537;-87
2023/08/02 02:05:23;;;;;;;2.50;1.52;;;;;;;21.98;nan;99423.13;5088864;28;20138;-89
2023/08/02 02:07:48;;;;;;;1.50;1.40;;;;;;;21.97;nan;99417.00;5071921;28;20483;-89
2023/08/02 02:10:14;;;;;;;2.95;1.65;;;;;;;21.96;nan;99410.91;5069215;28;20034;-89
2023/08/02 02:12:39;;;;;;;1.77;1.33;;;;;;;21.97;nan;99411.72;5092955;28;20035;-89
2023/08/02 02:15:05;;;;;;;3.63;1.50;;;;;;;21.97;nan;99414.38;5084972;28;20028;-89
2023/08/02 02:17:30;;;;;;;1.95;1.70;;;;;;;21.98;nan;99423.13;5084305;28;20051;-88
2023/08/02 02:19:55;;;;;;;2.55;2.13;;;;;;;21.99;nan;99422.13;5083934;28;20038;-88
2023/08/02 02:22:21;;;;;;;2.00;1.40;;;;;;;21.99;nan;99416.84;5087331;28;20028;-87
2023/08/02 02:24:46;;;;;;;4.90;1.80;;;;;;;21.99;nan;99411.56;5067128;28;20027;-89
2023/08/02 02:27:11;;;;;;;2.33;1.58;;;;;;;21.99;nan;99403.63;5086454;28;20051;-89
2023/08/02 02:29:37;;;;;;;1.40;1.30;;;;;;;21.99;nan;99393.06;5086015;28;20062;-87
2023/08/02 02:32:02;;;;;;;2.15;1.55;;;;;;;22.00;nan;99392.09;5086464;28;20812;-88
2023/08/02 02:34:28;;;;;;;2.25;1.50;;;;;;;21.99;nan;99398.34;5081855;28;20111;-88
2023/08/02 02:36:53;;;;;;;2.78;1.45;;;;;;;21.99;nan;99393.06;5088804;28;20051;-88
2023/08/02 02:39:19;;;;;;;1.30;1.15;;;;;;;22.00;nan;99392.09;5084922;28;20047;-90
2023/08/02 02:41:44;;;;;;;2.45;1.30;;;;;;;21.99;nan;99385.97;5092501;28;20672;-87
2023/08/02 02:44:09;;;;;;;1.67;1.58;;;;;;;21.99;nan;99382.50;5086888;28;20032;-89
2023/08/02 02:46:34;;;;;;;3.25;1.67;;;;;;;21.99;nan;99367.47;5089845;28;20047;-88
2023/08/02 02:49:00;;;;;;;2.47;1.42;;;;;;;21.99;nan;99366.63;5087228;28;20028;-87
2023/08/02 02:51:25;;;;;;;1.77;1.45;;;;;;;21.98;nan;99357.88;5082041;28;20034;-89
2023/08/02 02:53:50;;;;;;;2.30;1.50;;;;;;;21.99;nan;99366.63;5088465;28;20028;-89
2023/08/02 02:56:16;;;;;;;1.58;1.48;;;;;;;21.98;nan;99367.63;5087319;28;20032;-89
2023/08/02 02:58:41;;;;;;;1.60;1.50;;;;;;;21.98;nan;99359.69;5086300;28;20035;-88
2023/08/02 03:01:06;;;;;;;2.25;1.30;;;;;;;21.97;nan;99356.22;5068191;28;20032;-89
2023/08/02 03:03:32;;;;;;;2.22;1.52;;;;;;;21.98;nan;99360.53;5073208;28;20067;-89
2023/08/02 03:05:57;;;;;;;2.20;1.20;;;;;;;21.99;nan;99366.63;5085059;28;20108;-88
2023/08/02 03:08:22;;;;;;;2.03;1.83;;;;;;;21.98;nan;99355.25;5084717;28;20819;-88
2023/08/02 03:10:48;;;;;;;1.60;1.45;;;;;;;22.00;nan;99349.78;5069981;28;20757;-87
2023/08/02 03:13:13;;;;;;;1.38;1.27;;;;;;;22.00;nan;99341.88;5086582;28;21451;-88
2023/08/02 03:15:38;;;;;;;1.90;1.30;;;;;;;22.00;nan;99336.56;5088243;28;20042;-89
2023/08/02 03:18:04;;;;;;;3.78;1.20;;;;;;;22.00;nan;99331.28;5087582;28;20020;-88
2023/08/02 03:20:29;;;;;;;3.72;1.40;;;;;;;22.00;nan;99328.66;5086041;28;20028;-88
2023/08/02 03:22:55;;;;;;;3.20;1.63;;;;;;;22.00;nan;99323.38;5079920;28;20643;-88
2023/08/02 03:25:20;;;;;;;1.55;1.13;;;;;;;21.99;nan;99319.91;5085153;28;20031;-88
2023/08/02 03:27:45;;;;;;;1.52;1.30;;;;;;;22.00;nan;99310.97;5067949;28;20028;-87
2023/08/02 03:30:11;;;;;;;1.45;1.35;;;;;;;22.00;nan;99304.88;5083825;28;20039;-87
2023/08/02 03:32:36;;;;;;;3.03;1.50;;;;;;;22.00;nan;99305.69;5084193;28;20059;-87
2023/08/02 03:35:02;;;;;;;1.30;1.20;;;;;;;22.00;nan;99302.22;5089503;28;20020;-88
2023/08/02 03:37:27;;;;;;;2.42;1.50;;;;;;;22.01;nan;99303.88;5083192;28;20062;-88
2023/08/02 03:39:52;;;;;;;1.67;1.55;;;;;;;22.01;nan;99295.94;5084273;28;20155;-88
2023/08/02 03:42:18;;;;;;;1.42;1.23;;;;;;;22.00;nan;99295.13;5067768;28;20092;-88
2023/08/02 03:44:43;;;;;;;2.95;1.45;;;;;;;22.01;nan;99288.03;5069664;28;20051;-88
2023/08/02 03:47:08;;;;;;;1.55;1.40;;;;;;;22.01;nan;99285.38;5086850;28;20027;-88
2023/08/02 03:49:34;;;;;;;6.68;1.50;;;;;;;22.00;nan;99283.72;5086430;28;20027;-89
2023/08/02 03:52:00;;;;;;;1.27;1.17;;;;;;;22.00;nan;99283.72;5080941;28;20565;-88
2023/08/02 03:54:26;;;;;;;2.85;1.40;;;;;;;22.01;nan;99295.94;5086540;28;20056;-88
2023/08/02 03:56:51;;;;;;;1.77;1.25;;;;;;;22.00;nan;99292.47;5087212;28;20098;-89
2023/08/02 03:59:16;;;;;;;3.45;1.50;;;;;;;21.99;nan;99293.47;5084217;28;20039;-89
2023/08/02 04:01:42;;;;;;;1.52;1.38;;;;;;;22.00;nan;99286.38;5085899;28;20032;-88
2023/08/02 04:04:09;;;;;;;2.22;1.50;;;;;;;22.01;nan;99282.72;5091063;28;20028;-89
2023/08/02 04:06:34;;;;;;;1.67;1.10;;;;;;;22.00;nan;99273.97;5091788;28;20028;-88
2023/08/02 04:08:59;;;;;;;3.55;1.45;;;;;;;22.01;nan;99269.53;5088768;28;20615;-88
2023/08/02 04:11:25;;;;;;;2.30;1.40;;;;;;;22.00;nan;99262.56;5089221;28;20027;-90
2023/08/02 04:13:50;;;;;;;1.50;1.40;;;;;;;22.02;nan;99266.75;5091245;28;20050;-88
2023/08/02 04:16:16;;;;;;;1.98;1.30;;;;;;;22.02;nan;99261.47;5090209;28;20028;-87
2023/08/02 04:18:42;;;;;;;2.63;1.48;;;;;;;22.02;nan;99258.00;5088922;28;20122;-88
2023/08/02 04:21:07;;;;;;;3.78;1.40;;;;;;;22.02;nan;99242.97;5085639;28;20080;-87
2023/08/02 04:23:33;;;;;;;1.92;1.50;;;;;;;22.02;nan;99236.84;5090052;28;20036;-87
2023/08/02 04:25:58;;;;;;;3.45;1.20;;;;;;;22.02;nan;99235.03;5074909;28;20823;-87
2023/08/02 04:28:23;;;;;;;4.60;1.67;;;;;;;22.00;nan;99239.63;5088182;28;20122;-87
2023/08/02 04:30:50;;;;;;;2.03;1.33;;;;;;;22.01;nan;99232.53;5085029;28;20830;-88
2023/08/02 04:33:15;;;;;;;2.10;1.05;;;;;;;22.02;nan;99244.78;5087291;28;20151;-89
2023/08/02 04:35:40;;;;;;;3.53;1.25;;;;;;;22.00;nan;99241.44;5083134;28;20775;-87
2023/08/02 04:38:06;;;;;;;1.50;1.35;;;;;;;22.00;nan;99242.25;5088129;28;20145;-87
2023/08/02 04:40:31;;;;;;;2.05;1.30;;;;;;;22.01;nan;99240.44;5085991;28;20130;-86
2023/08/02 04:42:56;;;;;;;2.40;1.30;;;;;;;22.00;nan;99239.63;5094891;28;20043;-88
2023/08/02 04:45:21;;;;;;;1.88;1.05;;;;;;;22.01;nan;99237.81;5090264;28;20114;-86
2023/08/02 04:47:47;;;;;;;2.15;1.35;;;;;;;22.00;nan;99236.16;5084552;28;20134;-87
2023/08/02 04:50:12;;;;;;;1.30;1.20;;;;;;;21.99;nan;99227.41;5084421;28;20109;-87
2023/08/02 04:52:37;;;;;;;1.63;1.50;;;;;;;21.99;nan;99229.22;5082395;28;20111;-87
2023/08/02 04:55:05;;;;;;;2.25;1.30;;;;;;;21.99;nan;99229.22;5090214;28;20042;-88
2023/08/02 04:57:30;;;;;;;3.83;1.42;;;;;;;21.99;nan;99229.22;5085208;28;20035;-87
2023/08/02 04:59:56;;;;;;;2.90;1.40;;;;;;;22.00;nan;99233.50;5068720;28;20028;-87
2023/08/02 05:02:25;;;;;;;2.42;1.35;;;;;;;22.01;nan;99229.88;5082508;28;20577;-88
2023/08/02 05:04:52;;;;;;;4.15;1.30;;;;;;;21.99;nan;99227.41;5100498;27;20023;-87
2023/08/02 05:07:18;;;;;;;2.13;1.40;;;;;;;22.00;nan;99231.69;5090460;28;20116;-87
2023/08/02 05:09:43;;;;;;;3.47;1.10;;;;;;;22.01;nan;99227.22;5094777;28;20032;-88
2023/08/02 05:12:08;;;;;;;3.33;1.33;;;;;;;22.01;nan;99232.53;5089493;28;20035;-88
2023/08/02 05:14:34;;;;;;;0.90;0.90;;;;;;;22.01;nan;99221.94;5093289;28;20035;-89
2023/08/02 05:16:59;;;;;;;2.53;1.15;;;;;;;22.01;nan;99221.94;5068941;28;20042;-87
2023/08/02 05:19:25;;;;;;;1.90;1.17;;;;;;;22.01;nan;99214.88;5073416;28;20100;-88
2023/08/02 05:21:50;;;;;;;2.17;1.23;;;;;;;22.01;nan;99222.81;5085803;28;20032;-87
2023/08/02 05:24:15;;;;;;;1.60;1.25;;;;;;;22.06;nan;99209.09;5085426;28;20099;-85
2023/08/02 05:26:41;;;;;;;4.32;1.42;;;;;;;22.06;nan;99211.75;5087638;28;20072;-86
2023/08/02 05:29:06;;;;;;;1.80;1.10;;;;;;;22.02;nan;99205.97;5086402;28;20039;-87
2023/08/02 05:31:31;;;;;;;3.10;1.30;;;;;;;22.03;nan;99204.16;5069087;28;20023;-86
2023/08/02 05:33:57;;;;;;;3.33;1.35;;;;;;;22.02;nan;99198.03;5083180;28;20055;-87
2023/08/02 05:36:22;;;;;;;1.67;1.58;;;;;;;22.03;nan;99209.44;5082473;28;20059;-86
2023/08/02 05:38:47;;;;;;;1.95;1.13;;;;;;;22.03;nan;99206.78;5082115;28;20761;-87
2023/08/02 05:41:13;;;;;;;7.15;1.30;;;;;;;22.01;nan;99201.66;5069822;28;20809;-88
2023/08/02 05:43:42;;;;;;;2.95;1.67;;;;;;;22.01;nan;99209.59;5087850;28;20522;-88
2023/08/02 05:46:07;;;;;;;;;;;;;;;22.01;nan;99201.66;5088566;28;20032;-88
2023/08/02 05:48:33;;;;;;;5.10;1.33;;;;;;;22.02;nan;99202.50;5084881;28;19920;-88
2023/08/02 05:50:58;;;;;;;6.38;1.30;;;;;;;22.00;nan;99199.16;5070404;28;20306;-88
2023/08/02 05:53:23;;;;;;;1.88;1.17;;;;;;;22.01;nan;99198.16;5089096;28;20038;-90
2023/08/02 05:55:49;;;;;;;2.40;1.73;;;;;;;22.00;nan;99204.44;5089044;28;20023;-86
2023/08/02 05:58:14;;;;;;;5.18;1.77;;;;;;;21.98;nan;99199.31;5086624;28;20066;-87
2023/08/02 06:00:39;;;;;;;3.63;1.58;;;;;;;21.95;nan;99192.53;5066505;28;20032;-86
2023/08/02 06:03:05;;;;;;;2.35;1.58;;;;;;;21.92;nan;99190.19;5088206;28;20107;-85
2023/08/02 06:05:30;;;;;;;2.40;1.73;;;;;;;21.89;nan;99181.72;5086483;28;20739;-86
2023/08/02 06:07:56;;;;;;;4.95;1.70;;;;;;;21.90;nan;99173.66;5086358;28;20024;-85
2023/08/02 06:10:21;;;;;;;6.53;2.35;;;;;;;21.93;nan;99162.78;5083470;28;20023;-88
2023/08/02 06:12:47;;;;;;;9.48;2.00;;;;;;;21.91;nan;99164.75;5084652;28;20089;-87
2023/08/02 06:15:12;;;;;;;5.35;1.98;;;;;;;21.88;nan;99153.66;5086634;28;20062;-88
2023/08/02 06:17:38;;;;;;;7.25;1.98;;;;;;;21.86;nan;99150.34;5085309;28;20483;-85
2023/08/02 06:20:03;;;;;;;5.25;1.50;;;;;;;21.85;nan;99135.47;5082644;28;20126;-87
2023/08/02 06:22:29;;;;;;;9.30;2.00;;;;;;;21.82;nan;99131.31;5083561;28;20028;-86
2023/08/02 06:24:54;;;;;;;3.88;1.63;;;;;;;21.82;nan;99127.84;5087174;28;20031;-87
2023/08/02 06:27:19;;;;;;;5.20;2.00;;;;;;;21.82;nan;99123.38;5083947;28;20035;-87
2023/08/02 06:29:45;;;;;;;4.72;2.05;;;;;;;21.81;nan;99120.91;5085209;28;20127;-86
2023/08/02 06:32:10;;;;;;;3.25;1.80;;;;;;;21.82;nan;99112.81;5083501;28;20779;-86
2023/08/02 06:34:35;;;;;;;10.80;1.92;;;;;;;21.81;nan;99115.63;5085355;28;20097;-88
2023/08/02 06:37:01;;;;;;;6.25;1.55;;;;;;;21.82;nan;99112.81;5065148;28;20035;-86
2023/08/02 06:39:26;;;;;;;5.13;1.80;;;;;;;21.80;nan;99104.22;5085294;28;20086;-88
2023/08/02 06:41:52;;;;;;;2.10;1.58;;;;;;;21.80;nan;99100.75;5084304;28;20450;-87
2023/08/02 06:44:18;;;;;;;2.55;1.75;;;;;;;21.67;nan;99101.19;5083323;28;20112;-85
2023/08/02 06:46:43;;;;;;;2.20;2.00;;;;;;;21.46;nan;99083.03;5067570;28;20039;-86
2023/08/02 06:49:09;;;;;;;3.20;1.95;;;;;;;21.34;nan;99079.78;5065843;28;20024;-85
2023/08/02 06:51:34;;;;;;;3.22;2.10;;;;;;;21.32;nan;99073.81;5085695;28;20445;-87
2023/08/02 06:53:59;;;;;;;3.63;1.67;;;;;;;21.29;nan;99068.84;5062347;28;20076;-85
2023/08/02 06:56:25;;;;;;;2.67;1.70;;;;;;;21.30;nan;99059.94;5085386;28;20031;-87
2023/08/02 06:58:50;;;;;;;3.55;2.25;;;;;;;21.14;nan;99049.22;5067123;28;20039;-85
2023/08/02 07:01:20;;;;;;;4.60;2.00;;;;;;;21.18;nan;99045.31;5063489;28;20714;-85
2023/08/02 07:03:46;;;;;;;3.25;2.15;;;;;;;21.15;nan;99038.50;5096147;28;20440;-84
2023/08/02 07:06:13;;;;;;;5.10;2.17;;;;;;;21.08;nan;99029.53;5075814;28;20034;-85
2023/08/02 07:08:39;;;;;;;4.75;2.25;;;;;;;21.10;nan;99024.09;5081603;28;20030;-86
2023/08/02 07:11:05;;;;;;;7.35;2.40;;;;;;;21.37;nan;99023.19;5082934;28;20031;-86
2023/08/02 07:13:37;;;;;;;2.75;2.10;;;;;;;21.51;nan;99024.47;5069836;28;20515;-85
2023/08/02 07:16:04;;;;;;;10.15;1.90;;;;;;;21.58;nan;99021.03;5084961;28;20106;-85
2023/08/02 07:18:29;;;;;;;6.28;2.13;;;;;;;21.62;nan;99021.56;5082122;28;20137;-86
2023/08/02 07:20:55;;;;;;;3.35;2.08;;;;;;;21.64;nan;99020.41;5080631;28;20813;-86
2023/08/02 07:23:21;;;;;;;4.57;2.10;;;;;;;21.66;nan;99022.91;5085422;28;20665;-87
2023/08/02 07:25:46;;;;;;;3.85;1.83;;;;;;;21.67;nan;99024.56;5078298;28;20530;-87
2023/08/02 07:28:11;;;;;;;3.10;2.08;;;;;;;21.69;nan;99010.22;5063582;28;20041;-85
2023/08/02 07:30:37;;;;;;;3.90;2.13;;;;;;;21.70;nan;99013.69;5078840;28;20067;-86
2023/08/02 07:33:02;;;;;;;7.72;2.58;;;;;;;21.70;nan;99003.13;5063692;28;20633;-86
2023/08/02 07:35:27;;;;;;;4.88;1.95;;;;;;;21.73;nan;98994.91;5081481;28;20845;-87
2023/08/02 07:37:53;;;;;;;7.45;2.20;;;;;;;21.76;nan;98991.91;5066351;28;20140;-86
2023/08/02 07:40:18;;;;;;;15.38;2.42;;;;;;;21.77;nan;98985.66;5085183;28;20028;-86
2023/08/02 07:42:43;;;;;;;11.60;2.78;;;;;;;21.78;nan;98975.91;5086754;28;20035;-86
2023/08/02 07:45:10;;;;;;;12.32;2.63;;;;;;;21.77;nan;98974.25;5085378;28;20111;-86
2023/08/02 07:47:37;;;;;;;14.02;2.90;;;;;;;21.73;nan;98975.56;5068209;28;20079;-85
2023/08/02 07:50:03;;;;;;;13.30;3.08;;;;;;;21.73;nan;98965.84;5069025;28;20679;-86
2023/08/02 07:52:29;;;;;;;8.85;2.15;;;;;;;21.71;nan;98967.78;5084836;28;20023;-86
2023/08/02 07:54:55;;;;;;;10.70;2.72;;;;;;;21.71;nan;98978.34;5094748;28;20065;-85
2023/08/02 07:57:22;;;;;;;10.70;2.33;;;;;;;21.72;nan;98973.91;5067556;28;20109;-87
2023/08/02 07:59:47;;;;;;;13.63;3.33;;;;;;;21.71;nan;98962.50;5067197;28;20024;-84
2023/08/02 08:02:13;;;;;;;13.68;2.50;;;;;;;21.72;nan;98950.13;5080512;28;20035;-84
2023/08/02 08:04:38;;;;;;;8.32;2.20;;;;;;;21.70;nan;98956.41;5081047;28;20370;-85
2023/08/02 08:07:04;;;;;;;8.93;2.40;;;;;;;21.71;nan;98944.00;5082885;28;20028;-84
2023/08/02 08:09:29;;;;;;;8.15;2.60;;;;;;;21.70;nan;98940.56;5083478;28;20604;-83
2023/08/02 08:11:54;;;;;;;5.70;2.33;;;;;;;21.70;nan;98937.09;5082884;28;20448;-88
2023/08/02 08:14:20;;;;;;;9.65;2.05;;;;;;;21.72;nan;98937.75;5087346;28;20031;-86
2023/08/02 08:16:45;;;;;;;4.47;1.98;;;;;;;21.73;nan;98931.50;5085717;28;20032;-84
2023/08/02 08:19:10;;;;;;;4.97;1.90;;;;;;;21.71;nan;98933.44;5082855;28;20158;-86
2023/08/02 08:21:37;;;;;;;4.03;2.22;;;;;;;21.71;nan;98941.38;5087654;28;20030;-85
2023/08/02 08:24:06;;;;;;;5.43;2.20;;;;;;;21.70;nan;98939.72;5086752;28;20023;-87
2023/08/02 08:26:33;;;;;;;9.82;1.98;;;;;;;21.71;nan;98941.38;5086129;28;20134;-87
2023/08/02 08:28:59;;;;;;;4.97;1.92;;;;;;;21.70;nan;98929.16;5067725;28;20042;-85
2023/08/02 08:31:24;;;;;;;5.38;1.90;;;;;;;21.70;nan;98919.41;5080174;28;20027;-85
2023/08/02 08:33:50;;;;;;;8.35;2.03;;;;;;;21.71;nan;98928.16;5080203;28;20375;-86
2023/08/02 08:36:16;;;;;;;5.55;1.80;;;;;;;21.70;nan;98923.88;5080943;28;20794;-86
2023/08/02 08:38:42;;;;;;;4.38;1.90;;;;;;;21.70;nan;98922.06;5083172;28;20523;-85
2023/08/02 08:41:13;;;;;;;7.80;2.75;;;;;;;21.70;nan;98902.75;5081781;28;20042;-85
2023/08/02 08:43:39;;;;;;;4.20;2.20;;;;;;;21.70;nan;98900.94;5063171;28;20096;-84
2023/08/02 08:46:05;;;;;;;4.88;2.08;;;;;;;21.69;nan;98894.00;5078218;28;20831;-83
2023/08/02 08:48:32;;;;;;;4.72;2.00;;;;;;;21.70;nan;98890.38;5070025;28;20115;-85
2023/08/02 08:50:58;;;;;;;4.57;2.05;;;;;;;21.70;nan;98886.91;5067546;28;20496;-85
2023/08/02 08:53:32;;;;;;;3.35;1.75;;;;;;;21.70;nan;98882.44;5082454;28;20043;-87
2023/08/02 08:55:59;;;;;;;4.13;1.67;;;;;;;21.69;nan;98886.06;5080033;28;20027;-83
2023/08/02 08:58:25;;;;;;;4.35;1.60;;;;;;;21.70;nan;98871.88;5083262;28;20535;-85
2023/08/02 09:00:50;;;;;;;2.58;1.90;;;;;;;21.70;nan;98876.34;5084075;28;20031;-86
2023/08/02 09:03:16;;;;;;;2.95;2.00;;;;;;;21.70;nan;98876.34;5082421;28;20112;-85
2023/08/02 09:05:41;;;;;;;2.70;1.60;;;;;;;21.69;nan;98872.03;5083616;28;20110;-86
2023/08/02 09:08:08;;;;;;;3.45;1.88;;;;;;;21.70;nan;98873.69;5084058;28;20035;-84
2023/08/02 09:10:34;;;;;;;3.55;1.50;;;;;;;21.69;nan;98864.13;5083021;28;20047;-86
2023/08/02 09:12:59;;;;;;;2.38;1.77;;;;;;;21.68;nan;98852.72;5080718;28;20395;-84
2023/08/02 09:15:24;;;;;;;2.83;1.75;;;;;;;21.70;nan;98865.75;5087179;28;20059;-85
2023/08/02 09:17:53;;;;;;;5.90;1.90;;;;;;;21.68;nan;98868.56;5084432;28;20416;-84
2023/08/02 09:20:21;;;;;;;2.47;1.83;;;;;;;21.70;nan;98855.19;5083186;28;21347;-84
2023/08/02 09:22:47;;;;;;;3.08;1.55;;;;;;;21.69;nan;98856.19;5062172;28;20046;-87
2023/08/02 09:25:24;;;;;;;4.53;2.35;;;;;;;21.69;nan;98853.56;5071180;28;20464;-84
2023/08/02 09:27:50;;;;;;;2.85;1.60;;;;;;;21.69;nan;98843.81;5066030;28;20035;-86
2023/08/02 09:30:29;;;;;;;3.42;1.85;;;;;;;21.69;nan;98837.72;5081959;28;20408;-86
2023/08/02 09:33:03;;;;;;;2.33;1.30;;;;;;;21.69;nan;98837.72;5083182;28;20024;-86
2023/08/02 09:35:39;;;;;;;7.13;1.80;;;;;;;21.69;nan;98829.78;5082548;28;20059;-85
2023/08/02 09:38:08;;;;;;;3.08;1.45;;;;;;;21.68;nan;98825.50;5082621;28;20047;-87
2023/08/02 09:40:35;;;;;;;3.42;1.42;;;;;;;21.69;nan;98833.25;5081451;28;20477;-86
2023/08/02 09:43:02;;;;;;;3.83;1.92;;;;;;;21.69;nan;98827.97;5086155;28;20092;-85
2023/08/02 09:45:35;;;;;;;2.17;1.58;;;;;;;21.68;nan;98817.56;5083212;28;20027;-84
2023/08/02 09:48:00;;;;;;;2.15;1.42;;;;;;;21.68;nan;98815.75;5064111;28;20030;-86
2023/08/02 09:50:27;;;;;;;3.10;1.45;;;;;;;21.69;nan;98816.56;5064560;28;20019;-82
2023/08/02 09:52:52;;;;;;;1.67;1.50;;;;;;;21.68;nan;98814.94;5069275;28;20120;-85
2023/08/02 09:55:18;;;;;;;1.75;1.45;;;;;;;21.69;nan;98816.56;5071225;28;20087;-84
2023/08/02 09:57:45;;;;;;;2.47;1.50;;;;;;;21.68;nan;98809.66;5083819;28;20081;-86
2023/08/02 10:00:11;;;;;;;2.38;1.80;;;;;;;21.68;nan;98799.06;5081246;28;20531;-85
2023/08/02 10:02:37;;;;;;;2.50;1.50;;;;;;;21.69;nan;98787.53;5080040;28;20407;-86
2023/08/02 10:05:04;;;;;;;2.38;1.30;;;;;;;21.68;nan;98785.88;5079879;28;20410;-86
2023/08/02 10:07:42;;;;;;;2.53;1.80;;;;;;;21.68;nan;98791.16;5082154;28;20119;-87
2023/08/02 10:10:22;;;;;;;1.92;1.60;;;;;;;21.69;nan;98782.25;5082163;28;20106;-85
2023/08/02 10:12:56;;;;;;;2.60;1.60;;;;;;;21.68;nan;98788.50;5083952;28;20062;-86
2023/08/02 10:15:22;;;;;;;2.42;1.50;;;;;;;21.67;nan;98778.94;5063999;28;20034;-86
2023/08/02 10:17:48;;;;;;;1.75;1.50;;;;;;;21.68;nan;98775.31;5085438;28;20059;-86
2023/08/02 10:20:14;;;;;;;4.10;1.90;;;;;;;21.69;nan;98775.13;5064959;28;20028;-86
2023/08/02 10:22:40;;;;;;;2.88;1.70;;;;;;;21.68;nan;98772.66;5067242;28;20114;-84
2023/08/02 10:25:06;;;;;;;1.40;1.30;;;;;;;21.68;nan;98767.38;5082692;28;20411;-86
2023/08/02 10:27:32;;;;;;;5.00;1.70;;;;;;;21.68;nan;98770.84;5082902;28;20039;-86
2023/08/02 10:29:58;;;;;;;3.40;1.40;;;;;;;21.67;nan;98769.19;5066402;28;20032;-86
2023/08/02 10:32:23;;;;;;;3.13;1.65;;;;;;;21.68;nan;98759.47;5082584;28;20024;-86
2023/08/02 10:34:52;;;;;;;1.40;1.20;;;;;;;21.68;nan;98762.09;5082967;28;20040;-86
2023/08/02 10:37:19;;;;;;;1.63;1.52;;;;;;;21.68;nan;98747.06;5082709;28;20034;-85
2023/08/02 10:39:47;;;;;;;2.08;1.55;;;;;;;21.68;nan;98740.97;5083862;28;20048;-86
2023/08/02 10:42:16;;;;;;;3.00;1.60;;;;;;;21.68;nan;98748.91;5081136;28;20484;-86
2023/08/02 10:44:54;;;;;;;;;;;;;;;21.73;nan;98751.88;5090721;28;20028;-85
2023/08/02 10:47:31;;;;;;;2.85;1.63;;;;;;;21.74;nan;98739.50;5085616;28;19916;-86
2023/08/02 10:49:57;;;;;;;3.63;1.63;;;;;;;21.76;nan;98742.78;5068197;28;20148;-86
2023/08/02 10:52:33;;;;;;;6.22;1.70;;;;;;;21.75;nan;98735.84;5085955;28;20034;-85
2023/08/02 10:55:22;;;;;;;2.58;1.73;;;;;;;21.72;nan;98734.34;5067400;28;20756;-83
2023/08/02 10:57:56;;;;;;;1.48;1.38;;;;;;;21.73;nan;98728.09;5071869;28;20044;-87
2023/08/02 11:00:29;;;;;;;2.13;1.70;;;;;;;21.74;nan;98735.03;5079700;28;20038;-88
2023/08/02 11:02:57;;;;;;;2.05;1.73;;;;;;;21.74;nan;98724.47;5057639;28;20043;-87
2023/08/02 11:05:38;;;;;;;3.08;1.60;;;;;;;21.76;nan;98734.88;5084556;28;20020;-88
2023/08/02 11:08:03;;;;;;;3.45;1.67;;;;;;;21.74;nan;98732.41;5084839;28;20028;-87
2023/08/02 11:10:29;;;;;;;2.83;1.80;;;;;;;21.75;nan;98741.13;5067132;28;20042;-86
2023/08/02 11:12:54;;;;;;;3.10;1.70;;;;;;;21.76;nan;98729.59;5073343;28;20073;-87
2023/08/02 11:15:20;;;;;;;3.05;1.67;;;;;;;21.76;nan;98726.94;5103184;27;20024;-85
2023/08/02 11:17:48;;;;;;;2.95;1.92;;;;;;;21.77;nan;98712.75;5090091;28;20070;-83
2023/08/02 11:20:14;;;;;;;4.50;1.50;;;;;;;21.76;nan;98727.75;5084101;28;20090;-84
2023/08/02 11:22:40;;;;;;;4.55;1.90;;;;;;;21.77;nan;98718.03;5090492;28;20055;-86
2023/08/02 11:25:09;;;;;;;4.65;1.60;;;;;;;21.77;nan;98708.28;5085349;28;20111;-85
2023/08/02 11:27:34;;;;;;;3.17;1.60;;;;;;;21.77;nan;98710.91;5070850;28;20032;-86
2023/08/02 11:30:06;;;;;;;8.10;1.55;;;;;;;21.77;nan;98708.28;5070821;28;20693;-85
2023/08/02 11:32:32;;;;;;;2.65;1.60;;;;;;;21.77;nan;98710.91;5070980;28;20750;-86
2023/08/02 11:34:58;;;;;;;5.80;2.13;;;;;;;21.77;nan;98708.28;5080436;28;20030;-82
2023/08/02 11:37:24;;;;;;;5.53;1.80;;;;;;;21.76;nan;98709.28;5068156;28;20034;-82
2023/08/02 11:39:57;;;;;;;3.35;1.60;;;;;;;21.77;nan;98702.16;5082101;28;20048;-83
2023/08/02 11:42:23;;;;;;;4.25;1.73;;;;;;;21.76;nan;98704.00;5085054;28;20019;-85
2023/08/02 11:44:48;;;;;;;5.40;1.77;;;;;;;21.77;nan;98710.91;5079094;28;20089;-87
2023/08/02 11:47:14;;;;;;;3.30;1.55;;;;;;;21.78;nan;98701.19;5086988;28;21344;-85